Anna, Ohio
Current Conditions -  °F | °C
As of 3:53 PM on Thursday 27 Nov 2014 (Local Time) from KAXV Reporting Station
Light Snow Light Snow  
Wind Chill: 22°   Ceiling: 1100
Heat Index: 32°   Visibility: 5mi
Dew Point: 30°   Wind: 15mph
Humidity: 93%   Direction: 270°W
Pressure: 30.25"   Gusts: 22mph
Location:  40.39°N, 84.17°W
Report Text: KAXV 272053Z AUTO 27013G19KT 5SM -SN OVC011 00/M01 A3025 RMK AO2
Loading
Personal Weather Stations






























Interactive Weather Map New forecast layout! Learn more

10-Day Weather Forecast

Advertisements
Track Severe Weather on mobile